createdAt,value
2023-01-09T00:02:25.603Z,-4.80
2023-01-09T00:05:14.879Z,-4.70
2023-01-09T00:08:00.317Z,-4.70
2023-01-09T00:10:46.121Z,-4.70
2023-01-09T00:13:31.748Z,-4.80
2023-01-09T00:16:17.857Z,-4.70
2023-01-09T00:19:03.351Z,-4.70
2023-01-09T00:21:48.911Z,-4.70
2023-01-09T00:24:34.630Z,-4.70
2023-01-09T00:27:20.041Z,-4.70
2023-01-09T00:30:06.743Z,-4.60
2023-01-09T00:32:54.018Z,-4.60
2023-01-09T00:35:39.794Z,-4.60
2023-01-09T00:38:25.403Z,-4.60
2023-01-09T00:41:18.425Z,-4.60
2023-01-09T00:44:13.583Z,-4.50
2023-01-09T00:47:05.788Z,-4.50
2023-01-09T00:49:52.617Z,-4.50
2023-01-09T00:52:40.047Z,-4.50
2023-01-09T00:55:25.982Z,-4.50
2023-01-09T00:58:11.590Z,-4.50
2023-01-09T01:00:56.949Z,-4.50
2023-01-09T01:03:43.122Z,-4.50
2023-01-09T01:06:28.811Z,-4.50
2023-01-09T01:09:14.157Z,-4.50
2023-01-09T01:12:02.399Z,-4.50
2023-01-09T01:14:48.010Z,-4.40
2023-01-09T01:17:39.107Z,-4.40
2023-01-09T01:20:25.477Z,-4.40
2023-01-09T01:23:11.805Z,-4.40
2023-01-09T01:25:57.693Z,-4.40
2023-01-09T01:28:43.585Z,-4.40
2023-01-09T01:31:29.261Z,-4.50
2023-01-09T01:34:14.625Z,-4.50
2023-01-09T01:37:00.285Z,-4.50
2023-01-09T01:39:45.773Z,-4.50
2023-01-09T01:42:31.731Z,-4.50
2023-01-09T01:45:21.220Z,-4.40
2023-01-09T01:48:17.257Z,-4.40
2023-01-09T01:51:06.699Z,-4.40
2023-01-09T01:53:57.779Z,-4.40
2023-01-09T01:56:53.011Z,-4.40
2023-01-09T01:59:49.414Z,-4.50
2023-01-09T02:02:35.001Z,-4.50
2023-01-09T02:05:20.860Z,-4.50
2023-01-09T02:08:08.210Z,-4.50
2023-01-09T02:10:54.918Z,-4.50
2023-01-09T02:13:42.367Z,-4.40
2023-01-09T02:17:06.518Z,-4.40
2023-01-09T02:20:32.255Z,-4.40
2023-01-09T02:23:45.483Z,-4.40
2023-01-09T02:26:54.955Z,-4.40
2023-01-09T02:30:24.828Z,-4.40
2023-01-09T02:33:49.077Z,-4.40
2023-01-09T02:36:51.516Z,-4.40
2023-01-09T02:40:12.727Z,-4.40
2023-01-09T02:43:00.668Z,-4.40
2023-01-09T02:45:46.415Z,-4.40
2023-01-09T02:48:32.514Z,-4.40
2023-01-09T02:51:48.811Z,-4.40
2023-01-09T02:54:52.728Z,-4.40
2023-01-09T02:58:12.336Z,-4.40
2023-01-09T03:01:24.016Z,-4.40
2023-01-09T03:04:28.361Z,-4.40
2023-01-09T03:07:39.440Z,-4.40
2023-01-09T03:10:48.005Z,-4.40
2023-01-09T03:13:57.189Z,-4.40
2023-01-09T03:16:48.549Z,-4.40
2023-01-09T03:19:35.627Z,-4.40
2023-01-09T03:22:23.334Z,-4.40
2023-01-09T03:25:09.518Z,-4.40
2023-01-09T03:28:05.675Z,-4.40
2023-01-09T03:30:51.223Z,-4.40
2023-01-09T03:33:36.934Z,-4.40
2023-01-09T03:36:25.003Z,-4.40
2023-01-09T03:39:10.823Z,-4.30
2023-01-09T03:41:56.216Z,-4.40
2023-01-09T03:44:41.690Z,-4.40
2023-01-09T03:47:27.291Z,-4.40
2023-01-09T03:50:12.786Z,-4.40
2023-01-09T03:52:58.852Z,-4.40
2023-01-09T03:55:48.716Z,-4.50
2023-01-09T03:58:34.319Z,-4.40
2023-01-09T04:01:20.223Z,-4.40
2023-01-09T04:04:06.036Z,-4.40
2023-01-09T04:06:51.480Z,-4.50
2023-01-09T04:09:37.301Z,-4.50
2023-01-09T04:12:22.905Z,-4.50
2023-01-09T04:15:09.320Z,-4.50
2023-01-09T04:17:55.248Z,-4.50
2023-01-09T04:20:41.496Z,-4.50
2023-01-09T04:23:27.337Z,-4.50
2023-01-09T04:26:13.246Z,-4.50
2023-01-09T04:28:59.096Z,-4.50
2023-01-09T04:31:45.022Z,-4.50
2023-01-09T04:34:30.863Z,-4.50
2023-01-09T04:37:16.386Z,-4.50
2023-01-09T04:40:02.025Z,-4.50
2023-01-09T04:42:47.920Z,-4.40
2023-01-09T04:45:33.613Z,-4.50
2023-01-09T04:48:19.499Z,-4.50
2023-01-09T04:51:05.088Z,-4.60
2023-01-09T04:53:50.760Z,-4.50
2023-01-09T04:56:37.457Z,-4.60
2023-01-09T04:59:23.343Z,-4.50
2023-01-09T05:02:09.773Z,-4.50
2023-01-09T05:04:55.361Z,-4.50
2023-01-09T05:07:41.300Z,-4.50
2023-01-09T05:10:26.589Z,-4.50
2023-01-09T05:13:12.151Z,-4.50
2023-01-09T05:15:57.418Z,-4.50
2023-01-09T05:18:43.537Z,-4.50
2023-01-09T05:21:29.162Z,-4.50
2023-01-09T05:24:15.117Z,-4.50
2023-01-09T05:27:00.519Z,-4.50
2023-01-09T05:29:45.861Z,-4.50
2023-01-09T05:32:31.262Z,-4.50
2023-01-09T05:35:16.885Z,-4.50
2023-01-09T05:38:02.097Z,-4.40
2023-01-09T05:40:47.600Z,-4.40
2023-01-09T05:43:33.540Z,-4.50
2023-01-09T05:46:19.147Z,-4.50
2023-01-09T05:49:05.024Z,-4.50
2023-01-09T05:51:50.518Z,-4.40
2023-01-09T05:54:36.069Z,-4.40
2023-01-09T05:57:21.905Z,-4.40
2023-01-09T06:00:10.320Z,-4.40
2023-01-09T06:02:55.911Z,-4.40
2023-01-09T06:05:41.852Z,-4.40
2023-01-09T06:08:27.234Z,-4.40
2023-01-09T06:11:12.751Z,-4.40
2023-01-09T06:13:58.095Z,-4.40
2023-01-09T06:16:43.852Z,-4.40
2023-01-09T06:19:29.840Z,-4.30
2023-01-09T06:22:15.254Z,-4.30
2023-01-09T06:25:00.621Z,-4.30
2023-01-09T06:27:46.156Z,-4.30
2023-01-09T06:30:31.516Z,-4.30
2023-01-09T06:33:16.885Z,-4.30
2023-01-09T06:36:02.570Z,-4.30
2023-01-09T06:38:48.386Z,-4.30
2023-01-09T06:41:33.685Z,-4.30
2023-01-09T06:44:19.199Z,-4.30
2023-01-09T06:47:05.049Z,-4.30
2023-01-09T06:49:50.318Z,-4.30
2023-01-09T06:52:37.326Z,-4.30
2023-01-09T06:55:23.014Z,-4.20
2023-01-09T06:58:08.535Z,-4.20
2023-01-09T07:00:54.185Z,-4.20
2023-01-09T07:03:39.557Z,-4.20
2023-01-09T07:06:25.375Z,-4.10
2023-01-09T07:09:10.923Z,-4.10
2023-01-09T07:11:56.450Z,-4.10
2023-01-09T07:14:42.089Z,-4.10
2023-01-09T07:17:28.244Z,-4.00
2023-01-09T07:20:14.149Z,-4.00
2023-01-09T07:22:59.468Z,-4.00
2023-01-09T07:25:45.427Z,-4.00
2023-01-09T07:28:31.035Z,-3.90
2023-01-09T07:31:16.392Z,-3.90
2023-01-09T07:34:01.958Z,-3.90
2023-01-09T07:36:47.399Z,-3.90
2023-01-09T07:39:32.838Z,-4.00
2023-01-09T07:42:18.761Z,-3.90
2023-01-09T07:45:06.412Z,-3.90
2023-01-09T07:47:52.128Z,-3.90
2023-01-09T07:50:37.483Z,-3.90
2023-01-09T07:53:22.967Z,-3.90
2023-01-09T07:56:08.573Z,-3.80
2023-01-09T07:58:54.152Z,-3.80
2023-01-09T08:01:39.760Z,-3.80
2023-01-09T08:04:25.440Z,-3.80
2023-01-09T08:07:10.923Z,-3.70
2023-01-09T08:09:56.478Z,-3.70
2023-01-09T08:12:45.992Z,-3.70
2023-01-09T08:15:31.408Z,-3.70
2023-01-09T08:18:16.879Z,-3.70
2023-01-09T08:21:02.797Z,-3.60
2023-01-09T08:23:48.455Z,-3.60
2023-01-09T08:26:34.129Z,-3.50
2023-01-09T08:29:19.736Z,-3.60
2023-01-09T08:32:05.630Z,-3.50
2023-01-09T08:34:52.132Z,-3.50
2023-01-09T08:37:37.706Z,-3.50
2023-01-09T08:40:23.254Z,-3.50
2023-01-09T08:43:09.472Z,-3.40
2023-01-09T08:45:55.249Z,-3.40
2023-01-09T08:48:40.727Z,-3.40
2023-01-09T08:51:26.084Z,-3.30
2023-01-09T08:54:11.504Z,-3.20
2023-01-09T08:56:57.174Z,-3.20
2023-01-09T08:59:42.802Z,-3.20
2023-01-09T09:02:28.174Z,-3.20
2023-01-09T09:05:14.324Z,-3.20
2023-01-09T09:08:00.072Z,-3.20
2023-01-09T09:10:45.752Z,-3.10
2023-01-09T09:13:31.100Z,-3.20
2023-01-09T09:16:16.472Z,-3.10
2023-01-09T09:19:02.025Z,-3.10
2023-01-09T09:21:48.175Z,-3.10
2023-01-09T09:24:34.090Z,-3.00
2023-01-09T09:27:19.975Z,-3.00
2023-01-09T09:30:08.835Z,-2.90
2023-01-09T09:32:54.772Z,-2.90
2023-01-09T09:35:40.387Z,-2.90
2023-01-09T09:38:25.945Z,-2.90
2023-01-09T09:41:40.339Z,-2.80
2023-01-09T09:45:06.960Z,-2.80
2023-01-09T09:48:35.086Z,-2.70
2023-01-09T09:52:04.476Z,-2.70
2023-01-09T09:54:50.945Z,-2.70
2023-01-09T09:57:38.271Z,-2.70
2023-01-09T10:00:24.547Z,-2.60
2023-01-09T10:03:50.969Z,-2.60
2023-01-09T10:06:46.100Z,-2.50
2023-01-09T10:09:53.828Z,-2.50
2023-01-09T10:12:53.555Z,-2.50
2023-01-09T10:15:49.042Z,-2.50
2023-01-09T10:19:06.128Z,-2.50
2023-01-09T10:22:17.657Z,-2.50
2023-01-09T10:25:53.027Z,-2.50
2023-01-09T10:29:24.859Z,-2.50
2023-01-09T10:32:54.001Z,-2.40
2023-01-09T10:36:12.735Z,-2.40
2023-01-09T10:39:04.708Z,-2.30
2023-01-09T10:42:16.222Z,-2.30
2023-01-09T10:45:30.175Z,-2.40
2023-01-09T10:48:30.522Z,-2.30
2023-01-09T10:51:25.987Z,-2.30
2023-01-09T10:54:19.713Z,-2.20
2023-01-09T10:57:15.070Z,-2.20
2023-01-09T11:00:00.820Z,-2.20
2023-01-09T11:02:47.451Z,-2.10
2023-01-09T11:05:33.109Z,-2.10
2023-01-09T11:08:44.723Z,-2.10
2023-01-09T11:11:41.770Z,-2.10
2023-01-09T11:14:27.937Z,-2.10
2023-01-09T11:17:26.398Z,-2.10
2023-01-09T11:20:32.237Z,-2.10
2023-01-09T11:23:32.424Z,-2.00
2023-01-09T11:26:27.940Z,-2.00
2023-01-09T11:29:23.689Z,-2.00
2023-01-09T11:32:32.406Z,-2.00
2023-01-09T11:35:34.089Z,-2.00
2023-01-09T11:38:20.215Z,-1.90
2023-01-09T11:41:06.669Z,-1.90
2023-01-09T11:43:56.897Z,-1.90
2023-01-09T11:46:43.046Z,-1.90
2023-01-09T11:49:31.536Z,-1.90
2023-01-09T11:52:20.328Z,-1.90
2023-01-09T11:55:14.394Z,-1.80
2023-01-09T11:57:59.870Z,-1.80
2023-01-09T12:01:24.261Z,-1.80
2023-01-09T12:04:47.831Z,-1.80
2023-01-09T12:08:21.339Z,-1.80
2023-01-09T12:11:31.887Z,-1.80
2023-01-09T12:14:40.217Z,-1.80
2023-01-09T12:17:53.387Z,-1.80
2023-01-09T12:21:12.748Z,-1.80
2023-01-09T12:24:31.842Z,-1.80
2023-01-09T12:27:52.066Z,-1.80
2023-01-09T12:30:57.053Z,-1.80
2023-01-09T12:34:18.704Z,-1.80
2023-01-09T12:37:40.604Z,-1.80
2023-01-09T12:40:41.801Z,-1.80
2023-01-09T12:44:34.560Z,-1.80
2023-01-09T12:47:46.231Z,-1.80
2023-01-09T12:50:57.710Z,-1.80
2023-01-09T12:54:02.196Z,-1.80
2023-01-09T12:56:58.310Z,-1.80
2023-01-09T13:00:16.647Z,-1.80
2023-01-09T13:03:51.605Z,-1.70
2023-01-09T13:06:45.887Z,-1.70
2023-01-09T13:10:22.068Z,-1.70
2023-01-09T13:13:18.743Z,-1.70
2023-01-09T13:16:17.339Z,-1.70
2023-01-09T13:19:37.543Z,-1.60
2023-01-09T13:22:28.304Z,-1.60
2023-01-09T13:25:38.283Z,-1.60
2023-01-09T13:29:02.655Z,-1.60
2023-01-09T13:32:12.196Z,-1.60
2023-01-09T13:34:58.185Z,-1.60
2023-01-09T13:37:51.144Z,-1.60
2023-01-09T13:40:36.624Z,-1.60
2023-01-09T13:43:22.082Z,-1.60
2023-01-09T13:46:12.823Z,-1.60
2023-01-09T13:48:58.722Z,-1.60
2023-01-09T13:51:44.156Z,-1.60
2023-01-09T13:54:51.340Z,-1.60
2023-01-09T13:57:42.385Z,-1.50
2023-01-09T14:00:37.582Z,-1.50
2023-01-09T14:03:38.013Z,-1.50
2023-01-09T14:06:24.630Z,-1.50
2023-01-09T14:09:20.978Z,-1.50
2023-01-09T14:12:07.173Z,-1.50
2023-01-09T14:14:57.615Z,-1.40
2023-01-09T14:17:43.472Z,-1.40
2023-01-09T14:20:39.288Z,-1.40
2023-01-09T14:24:06.779Z,-1.40
2023-01-09T14:26:57.997Z,-1.40
2023-01-09T14:29:45.399Z,-1.40
2023-01-09T14:32:37.280Z,-1.40
2023-01-09T14:36:04.161Z,-1.30
2023-01-09T14:38:54.461Z,-1.30
2023-01-09T14:41:53.840Z,-1.30
2023-01-09T14:45:15.363Z,-1.30
2023-01-09T14:48:07.516Z,-1.30
2023-01-09T14:50:54.496Z,-1.30
2023-01-09T14:53:40.476Z,-1.30
2023-01-09T14:56:30.843Z,-1.20
2023-01-09T14:59:16.916Z,-1.20
2023-01-09T15:02:02.852Z,-1.20
2023-01-09T15:04:48.504Z,-1.20
2023-01-09T15:07:40.012Z,-1.20
2023-01-09T15:10:35.289Z,-1.10
2023-01-09T15:13:40.887Z,-1.10
2023-01-09T15:16:27.888Z,-1.10
2023-01-09T15:19:14.864Z,-1.10
2023-01-09T15:22:19.726Z,-1.00
2023-01-09T15:25:22.775Z,-1.00
2023-01-09T15:28:32.671Z,-1.00
2023-01-09T15:31:23.285Z,-1.00
2023-01-09T15:34:20.775Z,-1.00
2023-01-09T15:37:33.640Z,-1.00
2023-01-09T15:40:25.008Z,-1.00
2023-01-09T15:43:13.454Z,-1.00
2023-01-09T15:46:00.361Z,-0.90
2023-01-09T15:48:56.606Z,-0.90
2023-01-09T15:51:47.012Z,-0.90
2023-01-09T15:54:34.282Z,-0.90
2023-01-09T15:57:25.723Z,-0.80
2023-01-09T16:00:34.657Z,-0.80
2023-01-09T16:03:23.131Z,-0.80
2023-01-09T16:06:28.593Z,-0.80
2023-01-09T16:09:30.365Z,-0.80
2023-01-09T16:12:23.673Z,-0.80
2023-01-09T16:15:17.540Z,-0.80
2023-01-09T16:18:15.163Z,-0.70
2023-01-09T16:21:12.561Z,-0.70
2023-01-09T16:24:22.828Z,-0.60
2023-01-09T16:27:28.258Z,-0.60
2023-01-09T16:30:27.167Z,-0.60
2023-01-09T16:33:26.219Z,-0.60
2023-01-09T16:36:12.877Z,-0.60
2023-01-09T16:38:58.475Z,-0.60
2023-01-09T16:41:44.067Z,-0.60
2023-01-09T16:44:29.715Z,-0.50
2023-01-09T16:47:15.131Z,-0.50
2023-01-09T16:50:00.629Z,-0.50
2023-01-09T16:52:47.378Z,-0.50
2023-01-09T16:55:33.368Z,-0.50
2023-01-09T16:58:31.494Z,-0.50
2023-01-09T17:01:17.342Z,-0.50
2023-01-09T17:04:19.830Z,-0.50
2023-01-09T17:07:05.211Z,-0.50
2023-01-09T17:09:51.374Z,-0.50
2023-01-09T17:12:36.772Z,-0.50
2023-01-09T17:15:22.062Z,-0.40
2023-01-09T17:18:19.497Z,-0.40
2023-01-09T17:21:05.412Z,-0.40
2023-01-09T17:23:51.302Z,-0.40
2023-01-09T17:26:39.844Z,-0.40
2023-01-09T17:29:26.457Z,-0.40
2023-01-09T17:32:18.013Z,-0.40
2023-01-09T17:35:04.332Z,-0.40
2023-01-09T17:37:49.793Z,-0.40
2023-01-09T17:40:35.310Z,-0.40
2023-01-09T17:43:20.917Z,-0.40
2023-01-09T17:46:08.501Z,-0.40
2023-01-09T17:48:55.235Z,-0.40
2023-01-09T17:51:40.577Z,-0.40
2023-01-09T17:54:25.824Z,-0.40
2023-01-09T17:57:16.156Z,-0.30
2023-01-09T18:00:02.254Z,-0.40
2023-01-09T18:02:47.712Z,-0.40
2023-01-09T18:05:34.655Z,-0.30
2023-01-09T18:08:20.341Z,-0.30
2023-01-09T18:11:10.366Z,-0.30
2023-01-09T18:13:56.043Z,-0.30
2023-01-09T18:16:41.722Z,-0.30
2023-01-09T18:19:27.041Z,-0.30
2023-01-09T18:22:12.995Z,-0.30
2023-01-09T18:24:58.381Z,-0.30
2023-01-09T18:27:44.047Z,-0.30
2023-01-09T18:30:29.577Z,-0.30
2023-01-09T18:33:16.111Z,-0.30
2023-01-09T18:36:10.104Z,-0.30
2023-01-09T18:39:00.419Z,-0.30
2023-01-09T18:41:46.030Z,-0.30
2023-01-09T18:44:31.508Z,-0.20
2023-01-09T18:47:16.972Z,-0.30
2023-01-09T18:50:02.533Z,-0.20
2023-01-09T18:52:47.852Z,-0.20
2023-01-09T18:55:36.586Z,-0.30
2023-01-09T18:58:21.958Z,-0.20
2023-01-09T19:01:07.500Z,-0.20
2023-01-09T19:03:54.800Z,-0.20
2023-01-09T19:06:40.683Z,-0.20
2023-01-09T19:09:26.094Z,-0.20
2023-01-09T19:12:12.431Z,-0.20
2023-01-09T19:14:58.041Z,-0.20
2023-01-09T19:17:43.554Z,-0.20
2023-01-09T19:20:28.932Z,-0.20
2023-01-09T19:23:14.294Z,-0.30
2023-01-09T19:26:06.525Z,-0.20
2023-01-09T19:28:54.513Z,-0.30
2023-01-09T19:31:40.388Z,-0.20
2023-01-09T19:34:26.050Z,-0.20
2023-01-09T19:37:11.870Z,-0.20
2023-01-09T19:39:57.239Z,-0.20
2023-01-09T19:42:42.665Z,-0.20
2023-01-09T19:45:28.275Z,-0.30
2023-01-09T19:48:14.063Z,-0.30
2023-01-09T19:51:05.624Z,-0.20
2023-01-09T19:53:54.851Z,-0.20
2023-01-09T19:56:40.420Z,-0.20
2023-01-09T19:59:25.939Z,-0.10
2023-01-09T20:02:12.293Z,-0.10
2023-01-09T20:04:57.745Z,0.00
2023-01-09T20:07:43.844Z,0.00
2023-01-09T20:10:29.487Z,0.00
2023-01-09T20:13:14.766Z,0.10
2023-01-09T20:16:01.702Z,0.10
2023-01-09T20:18:48.279Z,0.10
2023-01-09T20:21:35.793Z,0.20
2023-01-09T20:24:21.375Z,0.20
2023-01-09T20:27:07.592Z,0.20
2023-01-09T20:29:53.114Z,0.20
2023-01-09T20:32:38.630Z,0.20
2023-01-09T20:35:23.935Z,0.20
2023-01-09T20:38:10.481Z,0.20
2023-01-09T20:40:56.173Z,0.20
2023-01-09T20:43:41.458Z,0.20
2023-01-09T20:46:33.131Z,0.30
2023-01-09T20:49:19.654Z,0.30
2023-01-09T20:52:05.409Z,0.30
2023-01-09T20:54:51.004Z,0.30
2023-01-09T20:57:36.515Z,0.30
2023-01-09T21:00:22.283Z,0.30
2023-01-09T21:03:08.042Z,0.30
2023-01-09T21:05:53.320Z,0.40
2023-01-09T21:08:40.423Z,0.40
2023-01-09T21:11:25.923Z,0.30
2023-01-09T21:14:11.274Z,0.40
2023-01-09T21:16:58.991Z,0.30
2023-01-09T21:19:44.573Z,0.40
2023-01-09T21:22:37.153Z,0.40
2023-01-09T21:25:22.638Z,0.40
2023-01-09T21:28:13.452Z,0.40
2023-01-09T21:30:59.192Z,0.40
2023-01-09T21:33:44.701Z,0.40
2023-01-09T21:36:30.152Z,0.40
2023-01-09T21:39:18.916Z,0.40
2023-01-09T21:42:04.618Z,0.40
2023-01-09T21:44:50.139Z,0.40
2023-01-09T21:47:35.580Z,0.40
2023-01-09T21:50:21.128Z,0.40
2023-01-09T21:53:08.060Z,0.40
2023-01-09T21:55:55.212Z,0.40
2023-01-09T21:58:44.552Z,0.40
2023-01-09T22:01:30.058Z,0.40
2023-01-09T22:04:19.475Z,0.40
2023-01-09T22:07:05.338Z,0.40
2023-01-09T22:09:54.467Z,0.30
2023-01-09T22:12:40.156Z,0.30
2023-01-09T22:15:25.698Z,0.30
2023-01-09T22:18:11.204Z,0.20
2023-01-09T22:20:56.748Z,0.10
2023-01-09T22:23:42.112Z,0.10
2023-01-09T22:26:29.427Z,0.00
2023-01-09T22:29:15.613Z,0.00
2023-01-09T22:32:01.252Z,0.00
2023-01-09T22:34:46.870Z,0.00
2023-01-09T22:37:32.430Z,0.00
2023-01-09T22:40:18.136Z,0.00
2023-01-09T22:43:04.631Z,0.00
2023-01-09T22:45:49.962Z,0.00
2023-01-09T22:48:35.511Z,0.00
2023-01-09T22:51:22.161Z,0.00
2023-01-09T22:54:08.129Z,-0.10
2023-01-09T22:56:53.667Z,-0.10
2023-01-09T22:59:39.048Z,-0.10
2023-01-09T23:02:24.835Z,-0.20
2023-01-09T23:05:11.085Z,-0.20
2023-01-09T23:07:56.510Z,-0.20
2023-01-09T23:10:43.057Z,-0.20
2023-01-09T23:13:28.612Z,-0.20
2023-01-09T23:16:14.538Z,-0.20
2023-01-09T23:19:00.619Z,-0.20
2023-01-09T23:21:46.429Z,-0.20
2023-01-09T23:24:32.390Z,-0.20
2023-01-09T23:27:17.824Z,-0.20
2023-01-09T23:30:03.368Z,-0.20
2023-01-09T23:32:49.146Z,-0.30
2023-01-09T23:35:34.826Z,-0.30
2023-01-09T23:38:20.583Z,-0.30
2023-01-09T23:41:06.117Z,-0.30
2023-01-09T23:43:51.548Z,-0.40
2023-01-09T23:46:37.255Z,-0.40
2023-01-09T23:49:22.672Z,-0.40
2023-01-09T23:52:08.110Z,-0.40
2023-01-09T23:54:54.128Z,-0.50
2023-01-09T23:57:39.665Z,-0.50
